sensor_id;sensor_type;location;lat;lon;timestamp;pressure;altitude;pressure_sealevel;temperature;humidity
76766;BME280;65707;52.362;6.588;2024-03-08T00:01:35;102103.59;;;3.34;80.34
76766;BME280;65707;52.362;6.588;2024-03-08T00:04:03;102103.31;;;3.38;80.35
76766;BME280;65707;52.362;6.588;2024-03-08T00:06:31;102104.16;;;3.39;80.45
76766;BME280;65707;52.362;6.588;2024-03-08T00:08:58;102095.44;;;3.37;79.99
76766;BME280;65707;52.362;6.588;2024-03-08T00:11:25;102089.47;;;3.33;80.49
76766;BME280;65707;52.362;6.588;2024-03-08T00:13:53;102087.00;;;3.44;79.60
76766;BME280;65707;52.362;6.588;2024-03-08T00:16:20;102084.09;;;3.49;79.76
76766;BME280;65707;52.362;6.588;2024-03-08T00:18:48;102089.53;;;3.32;80.10
76766;BME280;65707;52.362;6.588;2024-03-08T00:21:15;102091.88;;;3.22;80.53
76766;BME280;65707;52.362;6.588;2024-03-08T00:23:41;102082.84;;;3.40;80.02
76766;BME280;65707;52.362;6.588;2024-03-08T00:26:08;102079.34;;;3.40;79.65
76766;BME280;65707;52.362;6.588;2024-03-08T00:28:35;102076.69;;;3.40;79.40
76766;BME280;65707;52.362;6.588;2024-03-08T00:31:03;102077.06;;;3.34;79.95
76766;BME280;65707;52.362;6.588;2024-03-08T00:33:31;102072.72;;;3.33;80.06
76766;BME280;65707;52.362;6.588;2024-03-08T00:35:57;102071.38;;;3.40;79.25
76766;BME280;65707;52.362;6.588;2024-03-08T00:38:24;102070.63;;;3.38;79.30
76766;BME280;65707;52.362;6.588;2024-03-08T00:40:51;102067.59;;;3.30;79.66
76766;BME280;65707;52.362;6.588;2024-03-08T00:43:18;102065.78;;;3.30;79.66
76766;BME280;65707;52.362;6.588;2024-03-08T00:45:45;102073.28;;;3.38;79.69
76766;BME280;65707;52.362;6.588;2024-03-08T00:48:13;102065.44;;;3.36;79.32
76766;BME280;65707;52.362;6.588;2024-03-08T00:50:39;102064.88;;;3.45;79.07
76766;BME280;65707;52.362;6.588;2024-03-08T00:53:06;102055.94;;;3.32;79.59
76766;BME280;65707;52.362;6.588;2024-03-08T00:55:33;102063.41;;;3.26;79.97
76766;BME280;65707;52.362;6.588;2024-03-08T00:58:00;102063.88;;;3.18;79.99
76766;BME280;65707;52.362;6.588;2024-03-08T01:00:27;102044.25;;;3.20;79.84
76766;BME280;65707;52.362;6.588;2024-03-08T01:02:53;102058.16;;;3.10;79.81
76766;BME280;65707;52.362;6.588;2024-03-08T01:05:22;102054.03;;;3.20;79.90
76766;BME280;65707;52.362;6.588;2024-03-08T01:07:50;102054.22;;;3.17;80.16
76766;BME280;65707;52.362;6.588;2024-03-08T01:10:16;102051.28;;;3.22;79.67
76766;BME280;65707;52.362;6.588;2024-03-08T01:12:43;102056.19;;;3.13;79.90
76766;BME280;65707;52.362;6.588;2024-03-08T01:15:10;102043.41;;;3.06;79.74
76766;BME280;65707;52.362;6.588;2024-03-08T01:17:37;102038.47;;;3.00;80.11
76766;BME280;65707;52.362;6.588;2024-03-08T01:20:06;102035.63;;;3.03;79.83
76766;BME280;65707;52.362;6.588;2024-03-08T01:22:37;102034.34;;;2.94;80.27
76766;BME280;65707;52.362;6.588;2024-03-08T01:25:05;102032.16;;;2.87;80.41
76766;BME280;65707;52.362;6.588;2024-03-08T01:27:33;102025.53;;;2.94;80.68
76766;BME280;65707;52.362;6.588;2024-03-08T01:30:00;102013.94;;;2.96;80.12
76766;BME280;65707;52.362;6.588;2024-03-08T01:32:29;102009.13;;;3.03;79.67
76766;BME280;65707;52.362;6.588;2024-03-08T01:34:55;102009.66;;;3.08;79.51
76766;BME280;65707;52.362;6.588;2024-03-08T01:37:22;102014.94;;;2.94;79.57
76766;BME280;65707;52.362;6.588;2024-03-08T01:39:50;102005.47;;;2.90;79.78
76766;BME280;65707;52.362;6.588;2024-03-08T01:42:17;102003.91;;;3.01;79.70
76766;BME280;65707;52.362;6.588;2024-03-08T01:44:44;101995.34;;;2.82;80.27
76766;BME280;65707;52.362;6.588;2024-03-08T01:47:11;101988.00;;;3.01;79.31
76766;BME280;65707;52.362;6.588;2024-03-08T01:49:38;101989.13;;;2.97;79.30
76766;BME280;65707;52.362;6.588;2024-03-08T01:52:06;101977.72;;;2.81;79.47
76766;BME280;65707;52.362;6.588;2024-03-08T01:54:33;101994.06;;;2.74;80.24
76766;BME280;65707;52.362;6.588;2024-03-08T01:57:03;101982.81;;;2.84;79.73
76766;BME280;65707;52.362;6.588;2024-03-08T01:59:30;101978.69;;;2.94;79.11
76766;BME280;65707;52.362;6.588;2024-03-08T02:02:01;101985.31;;;2.87;79.21
76766;BME280;65707;52.362;6.588;2024-03-08T02:04:28;101981.72;;;2.88;79.18
76766;BME280;65707;52.362;6.588;2024-03-08T02:06:56;101980.19;;;2.84;79.22
76766;BME280;65707;52.362;6.588;2024-03-08T02:09:24;101981.53;;;2.91;79.19
76766;BME280;65707;52.362;6.588;2024-03-08T02:11:51;101980.38;;;2.81;79.44
76766;BME280;65707;52.362;6.588;2024-03-08T02:14:21;101975.97;;;2.66;80.01
76766;BME280;65707;52.362;6.588;2024-03-08T02:16:48;101974.19;;;2.67;79.95
76766;BME280;65707;52.362;6.588;2024-03-08T02:19:16;101970.53;;;2.83;79.17
76766;BME280;65707;52.362;6.588;2024-03-08T02:21:44;101968.81;;;2.68;79.55
76766;BME280;65707;52.362;6.588;2024-03-08T02:24:12;101963.31;;;2.71;79.34
76766;BME280;65707;52.362;6.588;2024-03-08T02:26:39;101964.72;;;2.63;79.55
76766;BME280;65707;52.362;6.588;2024-03-08T02:29:08;101963.13;;;2.74;79.25
76766;BME280;65707;52.362;6.588;2024-03-08T02:31:35;101959.03;;;2.69;79.37
76766;BME280;65707;52.362;6.588;2024-03-08T02:34:02;101954.63;;;2.83;78.36
76766;BME280;65707;52.362;6.588;2024-03-08T02:36:30;101952.44;;;2.76;78.86
76766;BME280;65707;52.362;6.588;2024-03-08T02:39:01;101957.06;;;2.72;79.10
76766;BME280;65707;52.362;6.588;2024-03-08T02:41:28;101953.84;;;2.67;79.16
76766;BME280;65707;52.362;6.588;2024-03-08T02:43:54;101949.31;;;2.69;79.01
76766;BME280;65707;52.362;6.588;2024-03-08T02:46:21;101942.50;;;2.65;79.35
76766;BME280;65707;52.362;6.588;2024-03-08T02:48:48;101938.91;;;2.66;79.10
76766;BME280;65707;52.362;6.588;2024-03-08T02:51:16;101949.31;;;2.69;79.10
76766;BME280;65707;52.362;6.588;2024-03-08T02:53:42;101939.19;;;2.76;78.70
76766;BME280;65707;52.362;6.588;2024-03-08T02:56:10;101939.44;;;2.57;78.80
76766;BME280;65707;52.362;6.588;2024-03-08T02:58:40;101934.66;;;2.48;79.54
76766;BME280;65707;52.362;6.588;2024-03-08T03:01:08;101927.34;;;2.67;78.61
76766;BME280;65707;52.362;6.588;2024-03-08T03:03:35;101928.38;;;2.65;78.42
76766;BME280;65707;52.362;6.588;2024-03-08T03:06:02;101922.31;;;2.63;78.47
76766;BME280;65707;52.362;6.588;2024-03-08T03:08:29;101927.63;;;2.63;78.35
76766;BME280;65707;52.362;6.588;2024-03-08T03:10:56;101922.31;;;2.63;78.30
76766;BME280;65707;52.362;6.588;2024-03-08T03:13:24;101912.41;;;2.66;78.12
76766;BME280;65707;52.362;6.588;2024-03-08T03:15:50;101915.25;;;2.77;77.58
76766;BME280;65707;52.362;6.588;2024-03-08T03:18:17;101906.81;;;2.71;78.01
76766;BME280;65707;52.362;6.588;2024-03-08T03:20:46;101908.78;;;2.67;77.86
76766;BME280;65707;52.362;6.588;2024-03-08T03:23:13;101909.19;;;2.75;77.61
76766;BME280;65707;52.362;6.588;2024-03-08T03:25:45;101910.16;;;2.74;77.32
76766;BME280;65707;52.362;6.588;2024-03-08T03:28:12;101902.00;;;2.63;77.32
76766;BME280;65707;52.362;6.588;2024-03-08T03:30:44;101900.66;;;2.70;77.00
76766;BME280;65707;52.362;6.588;2024-03-08T03:33:11;101895.25;;;2.58;77.54
76766;BME280;65707;52.362;6.588;2024-03-08T03:35:40;101906.34;;;2.64;77.35
76766;BME280;65707;52.362;6.588;2024-03-08T03:38:08;101905.22;;;2.68;77.23
76766;BME280;65707;52.362;6.588;2024-03-08T03:40:35;101901.91;;;2.79;76.74
76766;BME280;65707;52.362;6.588;2024-03-08T03:43:03;101904.34;;;2.68;76.94
76766;BME280;65707;52.362;6.588;2024-03-08T03:45:30;101897.28;;;2.68;76.81
76766;BME280;65707;52.362;6.588;2024-03-08T03:48:02;101893.75;;;2.68;76.90
76766;BME280;65707;52.362;6.588;2024-03-08T03:50:29;101900.63;;;2.56;77.18
76766;BME280;65707;52.362;6.588;2024-03-08T03:52:59;101900.91;;;2.52;77.68
76766;BME280;65707;52.362;6.588;2024-03-08T03:55:27;101895.72;;;2.64;76.76
76766;BME280;65707;52.362;6.588;2024-03-08T03:57:53;101892.59;;;2.58;77.07
76766;BME280;65707;52.362;6.588;2024-03-08T04:00:20;101887.59;;;2.67;76.22
76766;BME280;65707;52.362;6.588;2024-03-08T04:02:47;101899.88;;;2.40;77.26
76766;BME280;65707;52.362;6.588;2024-03-08T04:05:15;101886.84;;;2.51;77.25
76766;BME280;65707;52.362;6.588;2024-03-08T04:07:42;101895.16;;;2.59;77.16
76766;BME280;65707;52.362;6.588;2024-03-08T04:10:11;101882.19;;;2.69;76.24
76766;BME280;65707;52.362;6.588;2024-03-08T04:12:38;101882.00;;;2.58;76.44
76766;BME280;65707;52.362;6.588;2024-03-08T04:15:05;101879.25;;;2.59;76.18
76766;BME280;65707;52.362;6.588;2024-03-08T04:17:32;101872.81;;;2.49;76.88
76766;BME280;65707;52.362;6.588;2024-03-08T04:20:01;101877.25;;;2.49;76.68
76766;BME280;65707;52.362;6.588;2024-03-08T04:22:34;101876.06;;;2.54;77.04
76766;BME280;65707;52.362;6.588;2024-03-08T04:25:01;101873.66;;;2.50;76.50
76766;BME280;65707;52.362;6.588;2024-03-08T04:27:28;101872.53;;;2.40;76.35
76766;BME280;65707;52.362;6.588;2024-03-08T04:29:55;101872.63;;;2.38;76.94
76766;BME280;65707;52.362;6.588;2024-03-08T04:32:22;101870.34;;;2.32;77.09
76766;BME280;65707;52.362;6.588;2024-03-08T04:34:49;101869.59;;;2.44;76.70
76766;BME280;65707;52.362;6.588;2024-03-08T04:37:15;101868.09;;;2.40;76.50
76766;BME280;65707;52.362;6.588;2024-03-08T04:39:44;101866.19;;;2.42;76.78
76766;BME280;65707;52.362;6.588;2024-03-08T04:42:12;101872.72;;;2.37;76.96
76766;BME280;65707;52.362;6.588;2024-03-08T04:44:39;101867.59;;;2.34;77.03
76766;BME280;65707;52.362;6.588;2024-03-08T04:47:06;101863.72;;;2.39;76.65
76766;BME280;65707;52.362;6.588;2024-03-08T04:49:34;101869.75;;;2.27;77.10
76766;BME280;65707;52.362;6.588;2024-03-08T04:52:01;101871.16;;;2.33;77.25
76766;BME280;65707;52.362;6.588;2024-03-08T04:54:29;101855.66;;;2.27;77.43
76766;BME280;65707;52.362;6.588;2024-03-08T04:56:57;101862.66;;;2.28;76.78
76766;BME280;65707;52.362;6.588;2024-03-08T04:59:25;101855.38;;;2.31;77.15
76766;BME280;65707;52.362;6.588;2024-03-08T05:01:51;101861.63;;;2.30;76.66
76766;BME280;65707;52.362;6.588;2024-03-08T05:04:18;101857.84;;;2.34;76.79
76766;BME280;65707;52.362;6.588;2024-03-08T05:06:45;101852.19;;;2.40;76.38
76766;BME280;65707;52.362;6.588;2024-03-08T05:09:11;101860.06;;;2.26;76.98
76766;BME280;65707;52.362;6.588;2024-03-08T05:11:41;101854.88;;;2.25;77.14
76766;BME280;65707;52.362;6.588;2024-03-08T05:14:09;101846.84;;;2.26;77.07
76766;BME280;65707;52.362;6.588;2024-03-08T05:16:36;101841.03;;;2.35;76.57
76766;BME280;65707;52.362;6.588;2024-03-08T05:19:02;101845.56;;;2.33;76.75
76766;BME280;65707;52.362;6.588;2024-03-08T05:21:29;101853.97;;;2.26;76.85
76766;BME280;65707;52.362;6.588;2024-03-08T05:23:56;101850.44;;;2.25;76.88
76766;BME280;65707;52.362;6.588;2024-03-08T05:26:22;101847.78;;;2.25;77.68
76766;BME280;65707;52.362;6.588;2024-03-08T05:28:49;101849.03;;;2.20;77.05
76766;BME280;65707;52.362;6.588;2024-03-08T05:31:19;101853.06;;;2.11;77.62
76766;BME280;65707;52.362;6.588;2024-03-08T05:33:48;101848.53;;;2.13;77.21
76766;BME280;65707;52.362;6.588;2024-03-08T05:36:15;101839.56;;;2.30;77.12
76766;BME280;65707;52.362;6.588;2024-03-08T05:38:42;101845.69;;;2.16;77.12
76766;BME280;65707;52.362;6.588;2024-03-08T05:41:09;101841.88;;;2.06;77.61
76766;BME280;65707;52.362;6.588;2024-03-08T05:43:37;101838.16;;;2.24;77.16
76766;BME280;65707;52.362;6.588;2024-03-08T05:46:03;101841.72;;;2.23;76.92
76766;BME280;65707;52.362;6.588;2024-03-08T05:48:32;101844.94;;;2.14;77.54
76766;BME280;65707;52.362;6.588;2024-03-08T05:50:59;101840.63;;;2.27;77.01
76766;BME280;65707;52.362;6.588;2024-03-08T05:53:27;101844.03;;;2.29;76.57
76766;BME280;65707;52.362;6.588;2024-03-08T05:55:57;101847.22;;;2.20;77.04
76766;BME280;65707;52.362;6.588;2024-03-08T05:58:23;101839.81;;;2.11;77.09
76766;BME280;65707;52.362;6.588;2024-03-08T06:00:50;101838.31;;;2.07;77.40
76766;BME280;65707;52.362;6.588;2024-03-08T06:03:17;101841.50;;;2.12;77.35
76766;BME280;65707;52.362;6.588;2024-03-08T06:05:48;101832.00;;;2.24;76.83
76766;BME280;65707;52.362;6.588;2024-03-08T06:08:15;101837.94;;;2.13;77.22
76766;BME280;65707;52.362;6.588;2024-03-08T06:10:42;101836.59;;;2.06;77.23
76766;BME280;65707;52.362;6.588;2024-03-08T06:13:09;101831.78;;;2.13;77.34
76766;BME280;65707;52.362;6.588;2024-03-08T06:15:37;101834.63;;;2.10;77.47
76766;BME280;65707;52.362;6.588;2024-03-08T06:18:04;101834.25;;;2.16;77.13
76766;BME280;65707;52.362;6.588;2024-03-08T06:20:31;101833.69;;;2.25;77.24
76766;BME280;65707;52.362;6.588;2024-03-08T06:22:59;101836.06;;;2.15;77.44
76766;BME280;65707;52.362;6.588;2024-03-08T06:25:26;101825.63;;;2.12;77.60
76766;BME280;65707;52.362;6.588;2024-03-08T06:27:53;101830.59;;;2.18;76.93
76766;BME280;65707;52.362;6.588;2024-03-08T06:30:20;101824.19;;;2.36;76.46
76766;BME280;65707;52.362;6.588;2024-03-08T06:32:46;101822.19;;;2.26;76.72
76766;BME280;65707;52.362;6.588;2024-03-08T06:35:13;101828.41;;;2.25;76.66
76766;BME280;65707;52.362;6.588;2024-03-08T06:37:41;101821.53;;;2.36;76.42
76766;BME280;65707;52.362;6.588;2024-03-08T06:40:11;101826.25;;;2.31;76.13
76766;BME280;65707;52.362;6.588;2024-03-08T06:42:39;101823.22;;;2.37;76.12
76766;BME280;65707;52.362;6.588;2024-03-08T06:45:07;101818.78;;;2.38;75.76
76766;BME280;65707;52.362;6.588;2024-03-08T06:47:35;101813.50;;;2.52;75.62
76766;BME280;65707;52.362;6.588;2024-03-08T06:50:02;101816.25;;;2.50;75.46
76766;BME280;65707;52.362;6.588;2024-03-08T06:52:31;101813.41;;;2.53;75.07
76766;BME280;65707;52.362;6.588;2024-03-08T06:54:58;101805.38;;;2.55;75.06
76766;BME280;65707;52.362;6.588;2024-03-08T06:57:28;101817.69;;;2.70;74.48
76766;BME280;65707;52.362;6.588;2024-03-08T06:59:55;101810.38;;;2.73;74.24
76766;BME280;65707;52.362;6.588;2024-03-08T07:02:22;101815.88;;;2.70;74.51
76766;BME280;65707;52.362;6.588;2024-03-08T07:04:50;101812.19;;;2.73;74.41
76766;BME280;65707;52.362;6.588;2024-03-08T07:07:18;101809.75;;;2.84;73.92
76766;BME280;65707;52.362;6.588;2024-03-08T07:09:46;101808.97;;;2.96;73.91
76766;BME280;65707;52.362;6.588;2024-03-08T07:12:14;101801.59;;;2.87;73.96
76766;BME280;65707;52.362;6.588;2024-03-08T07:14:43;101807.44;;;3.06;73.50
76766;BME280;65707;52.362;6.588;2024-03-08T07:17:11;101791.25;;;3.10;73.01
76766;BME280;65707;52.362;6.588;2024-03-08T07:19:38;101801.19;;;3.07;73.00
76766;BME280;65707;52.362;6.588;2024-03-08T07:22:04;101790.88;;;3.02;72.93
76766;BME280;65707;52.362;6.588;2024-03-08T07:24:34;101788.38;;;3.13;73.25
76766;BME280;65707;52.362;6.588;2024-03-08T07:27:16;101786.41;;;3.17;72.82
76766;BME280;65707;52.362;6.588;2024-03-08T07:29:44;101791.81;;;3.15;73.37
76766;BME280;65707;52.362;6.588;2024-03-08T07:32:11;101788.09;;;3.45;72.35
76766;BME280;65707;52.362;6.588;2024-03-08T07:34:46;101769.59;;;3.57;71.64
76766;BME280;65707;52.362;6.588;2024-03-08T07:37:15;101771.28;;;3.58;71.79
76766;BME280;65707;52.362;6.588;2024-03-08T07:39:42;101763.78;;;3.77;71.09
76766;BME280;65707;52.362;6.588;2024-03-08T07:42:09;101762.91;;;4.03;70.76
76766;BME280;65707;52.362;6.588;2024-03-08T07:44:36;101751.13;;;4.32;70.11
76766;BME280;65707;52.362;6.588;2024-03-08T07:47:05;101747.69;;;4.81;68.33
76766;BME280;65707;52.362;6.588;2024-03-08T07:49:34;101733.03;;;4.99;67.14
76766;BME280;65707;52.362;6.588;2024-03-08T07:52:01;101736.63;;;5.10;65.70
76766;BME280;65707;52.362;6.588;2024-03-08T07:54:29;101735.28;;;5.28;66.47
76766;BME280;65707;52.362;6.588;2024-03-08T07:56:56;101723.38;;;5.68;64.65
76766;BME280;65707;52.362;6.588;2024-03-08T07:59:23;101716.09;;;6.05;63.57
76766;BME280;65707;52.362;6.588;2024-03-08T08:01:49;101701.97;;;6.15;61.58
76766;BME280;65707;52.362;6.588;2024-03-08T08:04:17;101695.44;;;6.19;61.17
76766;BME280;65707;52.362;6.588;2024-03-08T08:06:49;101707.06;;;6.18;61.93
76766;BME280;65707;52.362;6.588;2024-03-08T08:09:16;101691.44;;;6.47;60.78
76766;BME280;65707;52.362;6.588;2024-03-08T08:11:53;101692.28;;;6.48;59.97
76766;BME280;65707;52.362;6.588;2024-03-08T08:14:20;101683.78;;;6.54;60.79
76766;BME280;65707;52.362;6.588;2024-03-08T08:16:47;101686.81;;;6.71;60.83
76766;BME280;65707;52.362;6.588;2024-03-08T08:19:18;101674.28;;;7.05;58.69
76766;BME280;65707;52.362;6.588;2024-03-08T08:21:45;101676.44;;;7.11;58.20
76766;BME280;65707;52.362;6.588;2024-03-08T08:24:11;101677.03;;;7.14;58.04
76766;BME280;65707;52.362;6.588;2024-03-08T08:26:38;101668.91;;;7.47;57.36
76766;BME280;65707;52.362;6.588;2024-03-08T08:29:05;101661.53;;;7.60;57.20
76766;BME280;65707;52.362;6.588;2024-03-08T08:31:32;101666.16;;;7.58;56.68
76766;BME280;65707;52.362;6.588;2024-03-08T08:33:59;101657.38;;;7.88;56.74
76766;BME280;65707;52.362;6.588;2024-03-08T08:36:27;101642.72;;;8.13;55.92
76766;BME280;65707;52.362;6.588;2024-03-08T08:38:55;101642.88;;;8.11;55.24
76766;BME280;65707;52.362;6.588;2024-03-08T08:41:23;101635.66;;;8.23;54.82
76766;BME280;65707;52.362;6.588;2024-03-08T08:43:50;101629.63;;;8.30;54.74
76766;BME280;65707;52.362;6.588;2024-03-08T08:46:17;101625.63;;;8.55;54.60
76766;BME280;65707;52.362;6.588;2024-03-08T08:48:44;101613.31;;;8.82;52.53
76766;BME280;65707;52.362;6.588;2024-03-08T08:51:12;101615.59;;;9.06;52.31
76766;BME280;65707;52.362;6.588;2024-03-08T08:53:40;101604.31;;;8.93;52.97
76766;BME280;65707;52.362;6.588;2024-03-08T08:56:08;101606.72;;;9.15;52.93
76766;BME280;65707;52.362;6.588;2024-03-08T08:58:38;101594.41;;;9.51;50.89
76766;BME280;65707;52.362;6.588;2024-03-08T09:01:05;101589.06;;;9.31;51.49
76766;BME280;65707;52.362;6.588;2024-03-08T09:03:32;101588.38;;;9.49;50.52
76766;BME280;65707;52.362;6.588;2024-03-08T09:06:00;101595.44;;;9.21;50.74
76766;BME280;65707;52.362;6.588;2024-03-08T09:08:27;101592.88;;;9.38;50.86
76766;BME280;65707;52.362;6.588;2024-03-08T09:10:55;101580.84;;;9.62;50.00
76766;BME280;65707;52.362;6.588;2024-03-08T09:13:25;101588.06;;;9.61;51.24
76766;BME280;65707;52.362;6.588;2024-03-08T09:15:51;101567.06;;;10.12;49.30
76766;BME280;65707;52.362;6.588;2024-03-08T09:18:18;101563.44;;;9.94;49.65
76766;BME280;65707;52.362;6.588;2024-03-08T09:20:45;101561.84;;;10.01;49.94
76766;BME280;65707;52.362;6.588;2024-03-08T09:23:12;101562.41;;;10.59;48.89
76766;BME280;65707;52.362;6.588;2024-03-08T09:25:40;101557.03;;;10.59;48.52
76766;BME280;65707;52.362;6.588;2024-03-08T09:28:17;101550.34;;;10.90;47.78
76766;BME280;65707;52.362;6.588;2024-03-08T09:30:46;101550.94;;;10.84;47.17
76766;BME280;65707;52.362;6.588;2024-03-08T09:33:13;101543.56;;;10.86;47.67
76766;BME280;65707;52.362;6.588;2024-03-08T09:35:44;101539.06;;;11.04;47.01
76766;BME280;65707;52.362;6.588;2024-03-08T09:38:12;101534.19;;;11.25;46.75
76766;BME280;65707;52.362;6.588;2024-03-08T09:40:41;101524.50;;;11.58;45.79
76766;BME280;65707;52.362;6.588;2024-03-08T09:43:08;101526.25;;;11.41;46.70
76766;BME280;65707;52.362;6.588;2024-03-08T09:45:40;101519.06;;;11.67;45.48
76766;BME280;65707;52.362;6.588;2024-03-08T09:48:10;101500.13;;;12.10;44.26
76766;BME280;65707;52.362;6.588;2024-03-08T09:50:39;101501.75;;;12.03;44.43
76766;BME280;65707;52.362;6.588;2024-03-08T09:53:07;101488.75;;;12.24;44.25
76766;BME280;65707;52.362;6.588;2024-03-08T09:55:35;101503.22;;;12.23;44.17
76766;BME280;65707;52.362;6.588;2024-03-08T09:58:05;101485.09;;;12.49;43.57
76766;BME280;65707;52.362;6.588;2024-03-08T10:01:03;101474.22;;;12.75;43.63
76766;BME280;65707;52.362;6.588;2024-03-08T10:03:31;101470.16;;;12.79;43.90
76766;BME280;65707;52.362;6.588;2024-03-08T10:05:58;101462.56;;;13.55;42.22
76766;BME280;65707;52.362;6.588;2024-03-08T10:08:26;101460.03;;;13.53;41.74
76766;BME280;65707;52.362;6.588;2024-03-08T10:10:54;101456.38;;;13.85;42.02
76766;BME280;65707;52.362;6.588;2024-03-08T10:13:24;101449.41;;;14.37;39.94
76766;BME280;65707;52.362;6.588;2024-03-08T10:15:53;101446.50;;;14.08;40.01
76766;BME280;65707;52.362;6.588;2024-03-08T10:18:21;101456.06;;;13.80;40.95
76766;BME280;65707;52.362;6.588;2024-03-08T10:21:02;101455.69;;;13.91;41.58
76766;BME280;65707;52.362;6.588;2024-03-08T10:23:30;101457.91;;;13.79;41.85
76766;BME280;65707;52.362;6.588;2024-03-08T10:25:57;101452.13;;;14.37;40.30
76766;BME280;65707;52.362;6.588;2024-03-08T10:28:24;101446.97;;;14.95;39.23
76766;BME280;65707;52.362;6.588;2024-03-08T10:30:53;101464.19;;;14.49;40.69
76766;BME280;65707;52.362;6.588;2024-03-08T10:33:24;101451.19;;;15.12;38.59
76766;BME280;65707;52.362;6.588;2024-03-08T10:35:51;101448.00;;;15.09;38.72
76766;BME280;65707;52.362;6.588;2024-03-08T10:38:22;101457.41;;;14.98;39.01
76766;BME280;65707;52.362;6.588;2024-03-08T10:40:51;101458.56;;;15.41;38.05
76766;BME280;65707;52.362;6.588;2024-03-08T10:43:23;101458.19;;;15.21;37.94
76766;BME280;65707;52.362;6.588;2024-03-08T10:46:01;101465.00;;;15.17;38.23
76766;BME280;65707;52.362;6.588;2024-03-08T10:48:43;101463.16;;;15.32;38.85
76766;BME280;65707;52.362;6.588;2024-03-08T10:51:11;101442.97;;;15.58;37.78
76766;BME280;65707;52.362;6.588;2024-03-08T10:53:39;101452.41;;;15.24;38.81
76766;BME280;65707;52.362;6.588;2024-03-08T10:56:07;101443.72;;;15.81;37.87
76766;BME280;65707;52.362;6.588;2024-03-08T10:58:35;101450.16;;;15.50;38.35
76766;BME280;65707;52.362;6.588;2024-03-08T11:01:03;101437.25;;;15.96;38.27
76766;BME280;65707;52.362;6.588;2024-03-08T11:03:54;101430.38;;;16.65;36.30
76766;BME280;65707;52.362;6.588;2024-03-08T11:06:30;101434.84;;;16.37;37.03
76766;BME280;65707;52.362;6.588;2024-03-08T11:09:08;101426.13;;;16.06;36.77
76766;BME280;65707;52.362;6.588;2024-03-08T11:12:18;101413.94;;;16.31;36.63
76766;BME280;65707;52.362;6.588;2024-03-08T11:14:47;101426.69;;;16.16;37.55
76766;BME280;65707;52.362;6.588;2024-03-08T11:17:15;101411.53;;;16.57;36.01
76766;BME280;65707;52.362;6.588;2024-03-08T11:19:49;101413.16;;;16.16;37.72
76766;BME280;65707;52.362;6.588;2024-03-08T11:22:21;101411.59;;;16.28;36.83
76766;BME280;65707;52.362;6.588;2024-03-08T11:24:50;101398.94;;;16.14;36.59
76766;BME280;65707;52.362;6.588;2024-03-08T11:27:16;101396.75;;;16.38;36.70
76766;BME280;65707;52.362;6.588;2024-03-08T11:29:45;101382.16;;;16.81;35.36
76766;BME280;65707;52.362;6.588;2024-03-08T11:32:27;101395.41;;;16.49;36.78
76766;BME280;65707;52.362;6.588;2024-03-08T11:34:59;101389.16;;;16.69;35.39
76766;BME280;65707;52.362;6.588;2024-03-08T11:37:33;101381.69;;;16.99;35.62
76766;BME280;65707;52.362;6.588;2024-03-08T11:40:01;101384.19;;;17.00;35.78
76766;BME280;65707;52.362;6.588;2024-03-08T11:42:30;101375.25;;;17.07;35.62
76766;BME280;65707;52.362;6.588;2024-03-08T11:44:57;101371.13;;;16.83;36.27
76766;BME280;65707;52.362;6.588;2024-03-08T11:47:23;101374.06;;;17.09;35.71
76766;BME280;65707;52.362;6.588;2024-03-08T11:49:52;101369.53;;;16.95;35.71
76766;BME280;65707;52.362;6.588;2024-03-08T11:52:20;101359.25;;;17.12;35.70
76766;BME280;65707;52.362;6.588;2024-03-08T11:54:52;101353.56;;;17.41;34.84
76766;BME280;65707;52.362;6.588;2024-03-08T11:57:22;101334.84;;;17.12;34.86
76766;BME280;65707;52.362;6.588;2024-03-08T11:59:50;101337.19;;;17.21;34.98
76766;BME280;65707;52.362;6.588;2024-03-08T12:02:17;101354.88;;;17.11;35.71
76766;BME280;65707;52.362;6.588;2024-03-08T12:04:45;101321.03;;;17.88;33.22
76766;BME280;65707;52.362;6.588;2024-03-08T12:07:12;101326.34;;;17.21;34.13
76766;BME280;65707;52.362;6.588;2024-03-08T12:09:41;101323.78;;;17.47;34.93
76766;BME280;65707;52.362;6.588;2024-03-08T12:12:11;101318.97;;;17.96;33.61
76766;BME280;65707;52.362;6.588;2024-03-08T12:14:38;101316.66;;;17.93;34.19
76766;BME280;65707;52.362;6.588;2024-03-08T12:17:08;101318.88;;;17.64;33.81
76766;BME280;65707;52.362;6.588;2024-03-08T12:19:35;101313.44;;;17.64;33.68
76766;BME280;65707;52.362;6.588;2024-03-08T12:22:07;101311.47;;;17.98;33.49
76766;BME280;65707;52.362;6.588;2024-03-08T12:24:35;101305.66;;;18.08;33.53
76766;BME280;65707;52.362;6.588;2024-03-08T12:27:17;101297.66;;;17.93;33.14
76766;BME280;65707;52.362;6.588;2024-03-08T12:29:45;101295.56;;;17.89;33.52
76766;BME280;65707;52.362;6.588;2024-03-08T12:32:12;101293.38;;;17.65;33.62
76766;BME280;65707;52.362;6.588;2024-03-08T12:34:39;101278.16;;;17.64;34.62
76766;BME280;65707;52.362;6.588;2024-03-08T12:37:06;101281.31;;;17.80;34.71
76766;BME280;65707;52.362;6.588;2024-03-08T12:39:35;101277.03;;;17.45;34.43
76766;BME280;65707;52.362;6.588;2024-03-08T12:42:04;101270.28;;;17.88;33.76
76766;BME280;65707;52.362;6.588;2024-03-08T12:44:31;101257.16;;;18.11;33.35
76766;BME280;65707;52.362;6.588;2024-03-08T12:46:58;101256.06;;;17.86;33.48
76766;BME280;65707;52.362;6.588;2024-03-08T12:49:25;101245.47;;;18.24;32.81
76766;BME280;65707;52.362;6.588;2024-03-08T12:51:54;101242.31;;;18.33;33.08
76766;BME280;65707;52.362;6.588;2024-03-08T12:54:21;101229.16;;;18.76;32.51
76766;BME280;65707;52.362;6.588;2024-03-08T12:56:49;101229.34;;;18.94;32.08
76766;BME280;65707;52.362;6.588;2024-03-08T12:59:20;101226.63;;;18.81;31.50
76766;BME280;65707;52.362;6.588;2024-03-08T13:01:47;101232.72;;;18.70;32.10
76766;BME280;65707;52.362;6.588;2024-03-08T13:04:16;101216.41;;;18.77;31.51